Time;durP1;ratioP1;P1;durP2;ratioP2;P2;SDS_P1;SDS_P2;PMS_P1;PMS_P2;Temp;Humidity;BMP_temperature;BMP_pressure;BME280_temperature;BME280_humidity;BME280_pressure;Samples;Min_cycle;Max_cycle;Signal;HPM_P1;HPM_P2
2022/01/07 00:01:06;;;;;;;29.45;11.90;;;;;;;2.88;79.16;101452.97;5058088;28;20016;-70
2022/01/07 00:03:32;;;;;;;33.20;12.20;;;;;;;2.87;79.56;101438.31;5055058;28;20021;-70
2022/01/07 00:05:59;;;;;;;28.02;12.10;;;;;;;2.87;79.07;101441.78;5057333;28;20295;-70
2022/01/07 00:08:25;;;;;;;41.80;15.30;;;;;;;2.90;79.13;101446.25;5051832;28;20029;-70
2022/01/07 00:10:50;;;;;;;38.05;14.95;;;;;;;2.89;79.30;101444.47;5057417;28;20031;-70
2022/01/07 00:13:16;;;;;;;37.95;14.15;;;;;;;2.89;80.39;101429.91;5048338;28;20041;-70
2022/01/07 00:15:41;;;;;;;40.05;15.32;;;;;;;2.89;80.02;101429.03;5058394;28;20044;-71
2022/01/07 00:18:08;;;;;;;40.63;14.90;;;;;;;2.88;79.71;101432.38;5055318;28;20032;-70
2022/01/07 00:20:34;;;;;;;29.55;11.70;;;;;;;2.87;80.26;101423.78;5054739;28;20232;-70
2022/01/07 00:22:59;;;;;;;30.20;10.80;;;;;;;2.86;80.71;101416.84;5049541;28;20160;-70
2022/01/07 00:25:25;;;;;;;40.63;15.10;;;;;;;2.86;80.37;101416.84;5053353;28;20036;-70
2022/01/07 00:27:51;;;;;;;31.42;11.40;;;;;;;2.85;80.86;101411.59;5048830;28;20351;-70
2022/01/07 00:30:18;;;;;;;27.05;10.88;;;;;;;2.84;80.58;101399.50;5057596;28;20017;-70
2022/01/07 00:32:43;;;;;;;32.95;12.60;;;;;;;2.83;80.49;101410.63;5059906;28;20025;-70
2022/01/07 00:35:11;;;;;;;29.20;11.27;;;;;;;2.80;80.69;101403.59;5053970;28;20044;-70
2022/01/07 00:37:37;;;;;;;25.33;10.10;;;;;;;2.79;81.26;101412.09;5049147;28;20024;-70
2022/01/07 00:40:08;;;;;;;26.75;11.68;;;;;;;2.77;81.32;101400.81;5057740;28;20021;-71
2022/01/07 00:42:33;;;;;;;28.40;10.20;;;;;;;2.77;81.70;101398.25;5054186;28;20029;-71
2022/01/07 00:44:59;;;;;;;30.48;10.73;;;;;;;2.75;81.79;101382.72;5048197;28;20255;-71
2022/01/07 00:47:24;;;;;;;23.63;9.38;;;;;;;2.75;82.31;101384.38;5053558;28;20223;-71
2022/01/07 00:49:50;;;;;;;31.08;11.30;;;;;;;2.73;82.54;101365.38;5052240;28;20052;-71
2022/01/07 00:52:15;;;;;;;30.75;12.00;;;;;;;2.71;82.45;101366.97;5057844;28;20264;-71
2022/01/07 00:54:40;;;;;;;34.65;13.75;;;;;;;2.67;82.88;101360.75;5056601;28;20256;-71
2022/01/07 00:57:06;;;;;;;32.97;13.10;;;;;;;2.65;83.22;101354.63;5061710;28;20020;-71
2022/01/07 00:59:31;;;;;;;27.55;10.25;;;;;;;2.64;82.69;101354.53;5058593;28;20036;-71
2022/01/07 01:01:56;;;;;;;23.92;10.00;;;;;;;2.64;82.81;101346.81;5058714;28;20207;-71
2022/01/07 01:04:22;;;;;;;44.13;15.35;;;;;;;2.64;82.50;101339.09;5056689;28;20256;-71
2022/01/07 01:06:47;;;;;;;30.30;10.95;;;;;;;2.63;82.03;101338.19;5052363;28;20045;-71
2022/01/07 01:09:13;;;;;;;19.75;8.90;;;;;;;2.62;82.11;101336.38;5050954;28;20153;-71
2022/01/07 01:11:38;;;;;;;22.80;8.90;;;;;;;2.64;82.25;101336.53;5063323;28;20337;-71
2022/01/07 01:14:04;;;;;;;26.10;11.93;;;;;;;2.64;82.20;101332.25;5056809;28;20025;-71
2022/01/07 01:16:30;;;;;;;24.10;9.20;;;;;;;2.66;82.06;101329.78;5068423;28;20040;-71
2022/01/07 01:18:56;;;;;;;25.45;8.93;;;;;;;2.67;82.37;101334.13;5052899;28;20075;-71
2022/01/07 01:21:21;;;;;;;18.45;7.97;;;;;;;2.67;81.49;101317.00;5052279;28;20021;-71
2022/01/07 01:23:46;;;;;;;23.08;8.05;;;;;;;2.68;81.78;101323.03;5052673;28;20139;-71
2022/01/07 01:26:13;;;;;;;22.80;8.25;;;;;;;2.68;81.30;101312.72;5048165;28;20072;-71
2022/01/07 01:28:39;;;;;;;21.95;8.57;;;;;;;2.70;82.43;101303.44;5055771;28;20032;-71
2022/01/07 01:31:05;;;;;;;21.35;9.00;;;;;;;2.69;82.22;101310.25;5058837;28;20244;-71
2022/01/07 01:33:30;;;;;;;21.95;9.50;;;;;;;2.70;82.52;101296.59;5056970;28;20029;-71
2022/01/07 01:35:55;;;;;;;24.30;9.05;;;;;;;2.71;81.69;101305.19;5062473;28;20027;-71
2022/01/07 01:38:21;;;;;;;16.48;7.97;;;;;;;2.72;81.47;101296.69;5070155;28;20037;-71
2022/01/07 01:40:46;;;;;;;23.95;8.85;;;;;;;2.71;81.68;101297.50;5068275;28;20176;-71
2022/01/07 01:43:11;;;;;;;23.30;8.68;;;;;;;2.71;81.33;101290.69;5073318;28;20069;-71
2022/01/07 01:45:37;;;;;;;20.38;8.50;;;;;;;2.72;81.20;101291.56;5060980;28;20295;-71
2022/01/07 01:48:02;;;;;;;18.95;7.97;;;;;;;2.73;81.32;101291.66;5069036;28;20036;-71
2022/01/07 01:50:27;;;;;;;16.55;7.18;;;;;;;2.74;81.17;101274.53;5067859;28;20025;-71
2022/01/07 01:52:54;;;;;;;21.00;8.50;;;;;;;2.74;81.23;101274.53;5061188;28;20079;-71
2022/01/07 01:55:22;;;;;;;21.13;9.20;;;;;;;2.74;81.24;101271.97;5062510;28;20032;-71
2022/01/07 01:57:50;;;;;;;15.40;6.82;;;;;;;2.74;81.78;101269.41;5071727;28;20059;-71
2022/01/07 02:00:15;;;;;;;18.92;7.90;;;;;;;2.74;81.15;101260.00;5072194;28;20068;-71
2022/01/07 02:02:41;;;;;;;16.05;6.65;;;;;;;2.75;80.86;101245.44;5065185;28;21033;-71
2022/01/07 02:05:06;;;;;;;20.73;8.57;;;;;;;2.76;81.08;101252.38;5063273;28;20108;-71
2022/01/07 02:07:34;;;;;;;17.23;6.78;;;;;;;2.77;81.23;101251.56;5068998;28;20020;-71
2022/01/07 02:10:04;;;;;;;22.20;8.52;;;;;;;2.79;81.14;101242.25;5065799;28;20021;-71
2022/01/07 02:12:29;;;;;;;22.52;8.27;;;;;;;2.80;80.48;101249.19;5057431;28;20032;-71
2022/01/07 02:14:58;;;;;;;18.90;7.60;;;;;;;2.81;80.82;101244.91;5066317;28;20039;-71
2022/01/07 02:17:25;;;;;;;15.98;5.60;;;;;;;2.82;80.82;101250.16;5065356;28;20128;-71
2022/01/07 02:19:51;;;;;;;16.92;5.70;;;;;;;2.83;81.45;101254.53;5066922;28;20019;-71
2022/01/07 02:22:17;;;;;;;14.90;5.90;;;;;;;2.85;81.06;101246.88;5076940;28;20131;-71
2022/01/07 02:24:47;;;;;;;19.25;5.97;;;;;;;2.86;81.35;101248.69;5052159;28;20056;-71
2022/01/07 02:27:14;;;;;;;12.70;5.25;;;;;;;2.85;81.71;101234.91;5059571;28;20340;-70
2022/01/07 02:29:39;;;;;;;13.48;5.00;;;;;;;2.85;82.25;101241.75;5067349;28;20017;-71
2022/01/07 02:32:06;;;;;;;11.60;5.32;;;;;;;2.84;82.60;101234.81;5064108;28;20019;-71
2022/01/07 02:34:32;;;;;;;12.63;5.55;;;;;;;2.81;83.41;101238.09;5063072;28;20290;-71
2022/01/07 02:36:57;;;;;;;16.48;6.28;;;;;;;2.81;83.98;101240.69;5058224;28;20036;-71
2022/01/07 02:39:23;;;;;;;16.73;5.63;;;;;;;2.78;84.32;101233.66;5062836;28;20040;-71
2022/01/07 02:41:48;;;;;;;15.48;5.78;;;;;;;2.75;84.87;101236.03;5068252;28;20024;-71
2022/01/07 02:44:14;;;;;;;16.77;5.70;;;;;;;2.72;85.36;101227.22;5068161;28;20012;-71
2022/01/07 02:46:39;;;;;;;17.67;5.75;;;;;;;2.71;85.81;101230.59;5066388;28;20036;-71
2022/01/07 02:49:13;;;;;;;15.38;6.07;;;;;;;2.67;86.21;101218.34;5062461;28;20088;-71
2022/01/07 02:51:39;;;;;;;16.00;5.95;;;;;;;2.63;85.90;101226.69;5066988;28;20028;-71
2022/01/07 02:54:06;;;;;;;15.70;5.88;;;;;;;2.61;86.65;101218.88;5066423;28;20301;-71
2022/01/07 02:56:31;;;;;;;14.55;6.03;;;;;;;2.60;87.08;101214.50;5064914;28;20157;-71
2022/01/07 02:58:57;;;;;;;17.88;6.18;;;;;;;2.57;87.36;101217.78;5070340;28;20045;-71
2022/01/07 03:01:22;;;;;;;13.88;5.72;;;;;;;2.57;87.35;101209.19;5071256;28;20032;-71
2022/01/07 03:03:48;;;;;;;18.45;5.88;;;;;;;2.56;87.15;101203.16;5062351;28;20179;-71
2022/01/07 03:06:13;;;;;;;15.55;5.38;;;;;;;2.55;87.92;101203.03;5056219;28;20094;-71
2022/01/07 03:08:38;;;;;;;13.90;5.50;;;;;;;2.51;87.96;101201.09;5056380;28;20025;-71
2022/01/07 03:11:03;;;;;;;15.07;5.93;;;;;;;2.49;88.45;101197.53;5065362;28;20156;-71
2022/01/07 03:13:29;;;;;;;16.58;6.20;;;;;;;2.47;88.66;101193.97;5064415;28;20221;-71
2022/01/07 03:15:54;;;;;;;14.18;6.32;;;;;;;2.44;88.86;101192.97;5062672;28;20036;-71
2022/01/07 03:18:20;;;;;;;15.35;5.85;;;;;;;2.42;89.09;101191.13;5062619;28;20005;-71
2022/01/07 03:20:45;;;;;;;18.38;6.30;;;;;;;2.38;88.79;101190.03;5063006;28;20024;-71
2022/01/07 03:23:12;;;;;;;16.83;6.22;;;;;;;2.34;89.17;101185.47;5064993;28;20028;-71
2022/01/07 03:25:40;;;;;;;14.98;5.95;;;;;;;2.26;89.18;101182.44;5058071;28;20088;-71
2022/01/07 03:28:07;;;;;;;13.35;6.18;;;;;;;2.23;89.79;101171.06;5056743;28;20012;-71
2022/01/07 03:30:32;;;;;;;16.67;6.30;;;;;;;2.21;89.69;101172.66;5066693;28;20294;-71
2022/01/07 03:32:57;;;;;;;14.95;6.20;;;;;;;2.20;90.35;101179.50;5066903;28;20088;-71
2022/01/07 03:35:23;;;;;;;14.60;6.15;;;;;;;2.21;90.48;101177.81;5063150;28;20021;-71
2022/01/07 03:37:49;;;;;;;15.60;6.57;;;;;;;2.19;90.75;101177.72;5054158;28;20036;-71
2022/01/07 03:40:16;;;;;;;13.68;6.13;;;;;;;2.17;90.86;101171.59;5068081;28;20391;-71
2022/01/07 03:42:42;;;;;;;16.45;6.47;;;;;;;2.15;90.83;101178.31;5066263;28;20028;-71
2022/01/07 03:45:08;;;;;;;13.20;6.88;;;;;;;2.14;90.97;101176.53;5058268;28;20184;-71
2022/01/07 03:47:34;;;;;;;15.52;6.75;;;;;;;2.15;91.23;101172.28;5078427;28;20020;-71
2022/01/07 03:49:59;;;;;;;17.60;6.88;;;;;;;2.14;91.89;101166.25;5059483;28;20083;-71
2022/01/07 03:52:25;;;;;;;16.77;7.15;;;;;;;2.14;91.43;101155.97;5050020;28;20044;-71
2022/01/07 03:54:50;;;;;;;16.83;7.00;;;;;;;2.15;91.68;101157.75;5060635;28;20021;-71
2022/01/07 03:57:17;;;;;;;18.88;7.65;;;;;;;2.16;91.99;101156.06;5060759;28;20283;-71
2022/01/07 03:59:42;;;;;;;13.13;6.93;;;;;;;2.17;92.08;101152.69;5059536;28;20035;-71
2022/01/07 04:02:08;;;;;;;15.65;6.53;;;;;;;2.16;91.79;101146.69;5067266;28;20227;-71
2022/01/07 04:04:33;;;;;;;16.45;6.85;;;;;;;2.16;91.85;101133.81;5058121;28;20036;-71
2022/01/07 04:06:58;;;;;;;16.02;7.03;;;;;;;2.16;92.23;101138.97;5055645;28;20033;-71
2022/01/07 04:09:24;;;;;;;13.57;6.50;;;;;;;2.17;92.38;101133.03;5064115;28;20077;-71
2022/01/07 04:11:49;;;;;;;17.42;7.82;;;;;;;2.19;92.17;101139.16;5055815;28;20016;-71
2022/01/07 04:14:14;;;;;;;15.75;6.90;;;;;;;2.18;92.14;101123.63;5052046;28;20274;-71
2022/01/07 04:16:40;;;;;;;13.88;7.13;;;;;;;2.20;92.54;101127.16;5058438;28;20071;-71
2022/01/07 04:19:05;;;;;;;15.38;6.80;;;;;;;2.19;92.48;101130.56;5063775;28;20225;-71
2022/01/07 04:21:30;;;;;;;15.88;7.70;;;;;;;2.20;92.79;101128.09;5081996;28;20287;-71
2022/01/07 04:23:55;;;;;;;15.60;7.28;;;;;;;2.21;92.81;101131.53;5066640;28;20025;-71
2022/01/07 04:26:21;;;;;;;15.50;7.68;;;;;;;2.23;92.83;101135.97;5068658;28;20286;-71
2022/01/07 04:28:46;;;;;;;15.48;7.35;;;;;;;2.24;92.71;101131.72;5069259;28;20021;-71
2022/01/07 04:31:11;;;;;;;14.52;7.05;;;;;;;2.25;93.01;101129.25;5060647;28;20255;-71
2022/01/07 04:33:36;;;;;;;13.32;6.82;;;;;;;2.27;93.31;101126.75;5068521;28;20025;-71
2022/01/07 04:36:02;;;;;;;13.75;7.40;;;;;;;2.29;93.14;101134.56;5062567;28;20021;-71
2022/01/07 04:38:27;;;;;;;16.83;8.25;;;;;;;2.30;93.10;101136.34;5054432;28;20032;-71
2022/01/07 04:40:53;;;;;;;16.95;7.43;;;;;;;2.32;93.41;101134.75;5057697;28;20055;-71
2022/01/07 04:43:18;;;;;;;18.83;7.25;;;;;;;2.32;93.34;101139.88;5072192;28;20020;-71
2022/01/07 04:45:44;;;;;;;16.80;7.35;;;;;;;2.35;93.86;101137.53;5065871;28;20024;-71
2022/01/07 04:48:09;;;;;;;15.43;7.82;;;;;;;2.36;94.01;101137.63;5055775;28;20084;-71
2022/01/07 04:50:35;;;;;;;15.57;7.72;;;;;;;2.37;93.97;101128.22;5059339;28;20298;-71
2022/01/07 04:53:00;;;;;;;15.82;8.52;;;;;;;2.39;93.99;101127.53;5075984;28;20271;-71
2022/01/07 04:55:30;;;;;;;22.00;9.18;;;;;;;2.40;94.03;101125.84;5057872;28;20036;-71
2022/01/07 04:57:55;;;;;;;15.52;8.55;;;;;;;2.41;94.20;101109.63;5059620;28;20025;-71
2022/01/07 05:00:23;;;;;;;17.77;8.10;;;;;;;2.42;93.97;101111.41;5064580;28;20009;-71
2022/01/07 05:02:48;;;;;;;15.75;9.10;;;;;;;2.44;94.01;101104.66;5068147;28;20040;-71
2022/01/07 05:05:13;;;;;;;18.00;9.13;;;;;;;2.44;94.28;101100.38;5060763;28;20104;-71
2022/01/07 05:07:39;;;;;;;17.23;9.13;;;;;;;2.45;94.45;101109.00;5064059;28;20043;-71
2022/01/07 05:10:07;;;;;;;18.15;9.65;;;;;;;2.48;94.29;101108.28;5057160;28;20013;-71
2022/01/07 05:12:33;;;;;;;19.98;9.10;;;;;;;2.49;94.40;101100.69;5057443;28;20038;-71
2022/01/07 05:14:59;;;;;;;19.42;9.10;;;;;;;2.52;94.17;101098.28;5059047;28;20291;-71
2022/01/07 05:17:24;;;;;;;19.83;9.93;;;;;;;2.54;94.61;101100.97;5061030;28;20048;-71
2022/01/07 05:19:50;;;;;;;22.38;9.30;;;;;;;2.54;94.39;101091.56;5060374;28;20100;-71
2022/01/07 05:22:16;;;;;;;22.83;10.60;;;;;;;2.56;94.29;101087.41;5068230;28;20021;-71
2022/01/07 05:24:41;;;;;;;23.55;10.27;;;;;;;2.58;94.75;101097.78;5053022;28;20025;-71
2022/01/07 05:27:07;;;;;;;21.08;10.38;;;;;;;2.59;94.38;101092.72;5060956;28;20040;-71
2022/01/07 05:29:35;;;;;;;21.67;10.57;;;;;;;2.60;94.62;101094.47;5056246;28;20021;-71
2022/01/07 05:32:02;;;;;;;24.45;10.43;;;;;;;2.62;94.86;101084.28;5063001;28;20924;-71
2022/01/07 05:34:28;;;;;;;22.30;10.93;;;;;;;2.63;94.70;101087.75;5066818;28;20017;-71
2022/01/07 05:36:53;;;;;;;21.42;10.48;;;;;;;2.66;94.33;101087.94;5055785;28;20001;-71
2022/01/07 05:39:18;;;;;;;23.05;11.23;;;;;;;2.68;94.44;101097.53;5053037;28;20106;-71
2022/01/07 05:41:44;;;;;;;24.35;11.32;;;;;;;2.70;94.73;101088.19;5057436;28;20291;-71
2022/01/07 05:44:09;;;;;;;21.55;11.05;;;;;;;2.71;94.90;101086.50;5056534;28;20036;-71
2022/01/07 05:46:35;;;;;;;21.73;10.70;;;;;;;2.73;94.64;101092.66;5059757;28;20016;-71
2022/01/07 05:49:00;;;;;;;20.95;11.60;;;;;;;2.73;94.91;101088.38;5057630;28;20251;-71
2022/01/07 05:51:25;;;;;;;27.70;12.25;;;;;;;2.75;94.33;101084.22;5055755;28;20028;-71
2022/01/07 05:53:51;;;;;;;22.75;11.52;;;;;;;2.77;94.94;101089.47;5058279;28;20066;-70
2022/01/07 05:56:16;;;;;;;25.55;11.43;;;;;;;2.78;94.47;101088.66;5051449;28;20093;-71
2022/01/07 05:58:41;;;;;;;28.35;12.75;;;;;;;2.79;94.64;101080.13;5057963;28;20170;-71
2022/01/07 06:01:09;;;;;;;25.83;12.18;;;;;;;2.81;94.72;101078.56;5056224;28;20017;-71
2022/01/07 06:03:35;;;;;;;24.77;11.95;;;;;;;2.82;94.54;101071.72;5058028;28;20052;-71
2022/01/07 06:06:00;;;;;;;23.90;12.60;;;;;;;2.83;94.64;101074.38;5059171;28;20029;-71
2022/01/07 06:08:26;;;;;;;28.38;11.60;;;;;;;2.84;94.69;101076.16;5058654;28;20032;-71
2022/01/07 06:10:51;;;;;;;26.50;11.90;;;;;;;2.87;94.39;101083.16;5055894;28;20018;-71
2022/01/07 06:13:17;;;;;;;26.52;11.85;;;;;;;2.89;94.62;101081.56;5051777;28;20014;-71
2022/01/07 06:15:42;;;;;;;23.30;12.30;;;;;;;2.89;95.00;101079.88;5064546;28;20031;-71
2022/01/07 06:18:07;;;;;;;25.27;12.30;;;;;;;2.90;94.65;101084.22;5053552;28;20017;-71
2022/01/07 06:20:33;;;;;;;22.55;12.38;;;;;;;2.92;94.80;101090.34;5062169;28;20024;-71
2022/01/07 06:22:58;;;;;;;30.00;12.50;;;;;;;2.93;94.74;101084.41;5056819;28;20135;-71
2022/01/07 06:25:24;;;;;;;27.17;12.20;;;;;;;2.95;94.66;101084.50;5057726;28;20029;-71
2022/01/07 06:27:49;;;;;;;23.40;11.70;;;;;;;2.95;94.80;101087.97;5052503;28;20080;-71
2022/01/07 06:30:15;;;;;;;24.85;12.23;;;;;;;2.96;94.44;101082.00;5053892;28;21239;-71
2022/01/07 06:32:40;;;;;;;25.35;12.60;;;;;;;2.98;94.71;101084.66;5055775;28;20048;-71
2022/01/07 06:35:06;;;;;;;24.48;12.13;;;;;;;2.99;94.57;101086.44;5054376;28;20021;-71
2022/01/07 06:37:31;;;;;;;24.77;12.43;;;;;;;3.00;94.56;101077.03;5060283;28;20092;-71
2022/01/07 06:39:57;;;;;;;24.48;12.48;;;;;;;3.03;94.48;101095.25;5064360;28;20028;-71
2022/01/07 06:42:22;;;;;;;26.88;13.55;;;;;;;3.02;94.66;101094.34;5053504;28;20044;-71
2022/01/07 06:44:47;;;;;;;25.50;12.77;;;;;;;3.05;94.46;101091.94;5050897;28;20040;-71
2022/01/07 06:47:13;;;;;;;31.17;13.38;;;;;;;3.07;94.27;101089.47;5050466;28;20036;-71
2022/01/07 06:49:38;;;;;;;29.50;12.90;;;;;;;3.09;94.45;101095.59;5055635;28;20032;-70
2022/01/07 06:52:04;;;;;;;27.10;12.38;;;;;;;3.10;94.51;101084.47;5048550;28;20028;-71
2022/01/07 06:54:31;;;;;;;24.95;12.38;;;;;;;3.12;94.56;101085.47;5050751;28;20020;-71
2022/01/07 06:56:57;;;;;;;30.77;13.43;;;;;;;3.13;94.45;101092.41;5059280;28;20145;-71
2022/01/07 06:59:23;;;;;;;27.85;13.20;;;;;;;3.14;94.47;101089.00;5055694;28;20025;-71
2022/01/07 07:01:48;;;;;;;27.40;13.90;;;;;;;3.15;94.29;101080.50;5050329;28;20191;-71
2022/01/07 07:04:15;;;;;;;29.67;13.55;;;;;;;3.16;94.30;101069.41;5053020;28;20048;-71
2022/01/07 07:06:40;;;;;;;29.50;13.75;;;;;;;3.18;94.36;101078.09;5047097;28;20048;-71
2022/01/07 07:09:06;;;;;;;32.47;14.30;;;;;;;3.20;94.31;101084.25;5058295;28;20211;-71
2022/01/07 07:11:32;;;;;;;29.42;13.88;;;;;;;3.21;94.22;101088.56;5048481;28;20088;-71
2022/01/07 07:13:57;;;;;;;32.22;14.48;;;;;;;3.23;94.20;101081.84;5054217;28;20013;-71
2022/01/07 07:16:23;;;;;;;29.88;13.93;;;;;;;3.26;94.20;101099.16;5050769;28;20032;-71
2022/01/07 07:18:48;;;;;;;34.70;13.98;;;;;;;3.26;94.18;101096.59;5056495;28;20066;-71
2022/01/07 07:21:13;;;;;;;30.00;14.13;;;;;;;3.28;94.09;101090.69;5052040;28;20289;-71
2022/01/07 07:23:39;;;;;;;31.65;14.32;;;;;;;3.28;94.19;101095.84;5047961;28;20017;-71
2022/01/07 07:26:04;;;;;;;32.00;14.23;;;;;;;3.30;94.40;101106.22;5050911;28;20013;-71
2022/01/07 07:28:29;;;;;;;28.85;13.80;;;;;;;3.32;94.16;101104.66;5049083;28;20036;-71
2022/01/07 07:30:59;;;;;;;31.02;14.63;;;;;;;3.32;94.33;101104.66;5054750;28;20298;-71
2022/01/07 07:38:39;;;;;;;34.35;14.23;;;;;;;3.38;94.05;101098.97;5050435;28;20274;-71
2022/01/07 07:41:06;;;;;;;30.60;14.30;;;;;;;3.38;94.04;101098.97;5049043;28;20025;-71
2022/01/07 07:43:32;;;;;;;30.38;14.57;;;;;;;3.39;94.00;101090.41;5053228;28;20028;-71
2022/01/07 07:45:57;;;;;;;27.95;14.55;;;;;;;3.40;93.87;101092.19;5051227;28;20029;-71
2022/01/07 07:48:22;;;;;;;33.20;15.23;;;;;;;3.42;94.01;101086.34;5047641;28;20368;-71
2022/01/07 07:50:48;;;;;;;36.08;15.05;;;;;;;3.43;93.97;101080.41;5048409;28;20094;-71
2022/01/07 07:53:13;;;;;;;34.15;14.98;;;;;;;3.43;93.89;101077.81;5053417;28;20102;-71
2022/01/07 07:55:38;;;;;;;32.85;14.25;;;;;;;3.45;93.93;101083.94;5051604;28;20025;-71
2022/01/07 07:58:03;;;;;;;31.85;13.63;;;;;;;3.46;93.71;101088.28;5062630;28;20017;-71
2022/01/07 08:00:31;;;;;;;33.22;15.30;;;;;;;3.47;93.78;101092.63;5051390;28;20132;-71
2022/01/07 08:02:57;;;;;;;34.90;15.40;;;;;;;3.50;93.92;101102.22;5049492;28;20021;-71
2022/01/07 08:05:22;;;;;;;30.13;14.73;;;;;;;3.50;93.96;101099.63;5046423;28;20045;-71
2022/01/07 08:07:48;;;;;;;28.70;13.77;;;;;;;3.52;93.82;101100.63;5053963;28;20164;-71
2022/01/07 08:10:13;;;;;;;31.33;14.60;;;;;;;3.55;93.81;101094.72;5052746;28;20271;-71
2022/01/07 08:18:07;;;;;;;34.97;15.57;;;;;;;3.58;93.73;101066.59;5055564;28;20020;-71
2022/01/07 08:20:33;;;;;;;67.25;30.60;;;;;;;3.59;93.64;101082.13;5057155;28;20036;-71
2022/01/07 08:22:58;;;;;;;31.52;15.88;;;;;;;3.60;93.83;101078.72;5044822;28;20060;-71
2022/01/07 08:25:24;;;;;;;56.88;23.98;;;;;;;3.61;93.68;101070.22;5053211;28;20020;-70
2022/01/07 08:27:50;;;;;;;34.22;16.95;;;;;;;3.61;93.73;101070.22;5055435;28;20087;-71
2022/01/07 08:30:22;;;;;;;37.63;17.50;;;;;;;3.62;93.73;101061.69;5057612;28;20040;-71
2022/01/07 08:35:37;;;;;;;47.47;19.67;;;;;;;3.65;93.49;101061.84;5067019;28;20056;-71
2022/01/07 08:38:02;;;;;;;50.08;19.85;;;;;;;3.66;nan;101067.88;5051038;28;20025;-71
2022/01/07 08:40:28;;;;;;;33.50;17.10;;;;;;;3.65;93.69;101072.16;5052750;28;20020;-71
2022/01/07 08:42:53;;;;;;;42.20;20.65;;;;;;;3.67;93.34;101064.50;5054159;28;20028;-71
2022/01/07 08:45:18;;;;;;;65.18;33.03;;;;;;;3.68;93.08;101066.28;5052182;28;20039;-71
2022/01/07 08:47:43;;;;;;;39.67;18.70;;;;;;;3.70;93.50;101076.69;5049251;28;20021;-71
2022/01/07 08:50:09;;;;;;;35.42;18.33;;;;;;;3.71;93.32;101074.19;5053040;28;20053;-71
2022/01/07 08:52:34;;;;;;;29.35;16.27;;;;;;;3.74;93.71;101070.91;5047738;28;20028;-71
2022/01/07 08:54:59;;;;;;;33.90;15.68;;;;;;;3.74;93.66;101070.91;5051645;28;20045;-71
2022/01/07 08:57:25;;;;;;;30.60;14.60;;;;;;;3.76;93.60;101083.03;5057211;28;20021;-71
2022/01/07 08:59:51;;;;;;;41.45;23.13;;;;;;;3.78;93.32;101088.28;5051195;28;20033;-71
2022/01/07 09:02:17;;;;;;;29.17;16.27;;;;;;;3.80;93.38;101091.84;5055653;28;20075;-71
2022/01/07 09:04:42;;;;;;;39.20;18.17;;;;;;;3.81;93.38;101094.50;5052505;28;20037;-71
2022/01/07 09:07:07;;;;;;;31.20;18.40;;;;;;;3.84;93.38;101086.06;5055260;28;20255;-71
2022/01/07 09:09:33;;;;;;;30.20;14.90;;;;;;;3.84;93.28;101078.34;5060406;28;20017;-71
2022/01/07 09:11:58;;;;;;;31.20;14.80;;;;;;;3.86;93.07;101081.00;5059281;28;20341;-71
2022/01/07 09:14:23;;;;;;;31.45;14.38;;;;;;;3.87;93.23;101086.22;5053624;28;20025;-71
2022/01/07 09:16:49;;;;;;;31.73;17.98;;;;;;;3.88;93.19;101077.69;5057947;28;20013;-71
2022/01/07 09:19:14;;;;;;;30.30;15.15;;;;;;;3.87;92.99;101081.06;5054869;28;20029;-70
2022/01/07 09:21:39;;;;;;;30.08;14.55;;;;;;;3.89;93.04;101073.41;5058803;28;20088;-71
2022/01/07 09:24:05;;;;;;;34.05;14.75;;;;;;;3.90;93.11;101072.63;5053444;28;20092;-71
2022/01/07 09:26:30;;;;;;;34.00;15.05;;;;;;;3.90;92.84;101067.47;5060319;28;20024;-71
2022/01/07 09:28:55;;;;;;;30.83;14.10;;;;;;;3.92;93.09;101069.31;5057852;28;20144;-71
2022/01/07 09:31:21;;;;;;;37.40;18.42;;;;;;;3.95;93.20;101071.16;5063036;28;20020;-71
2022/01/07 09:33:46;;;;;;;28.35;14.30;;;;;;;3.97;92.95;101077.31;5059120;28;20089;-71
2022/01/07 09:36:11;;;;;;;29.83;13.80;;;;;;;4.02;92.67;101083.59;5057240;28;20236;-73
2022/01/07 09:38:37;;;;;;;29.85;14.82;;;;;;;4.03;92.72;101080.22;5061555;28;20017;-71
2022/01/07 09:41:02;;;;;;;27.83;14.55;;;;;;;4.04;92.79;101075.94;5057948;28;20021;-71
2022/01/07 09:43:28;;;;;;;28.70;14.95;;;;;;;4.07;92.36;101073.50;5057662;28;20039;-71
2022/01/07 09:45:53;;;;;;;32.15;14.57;;;;;;;4.09;92.80;101074.50;5054860;28;20072;-71
2022/01/07 09:48:18;;;;;;;27.33;14.60;;;;;;;4.14;92.21;101075.59;5057113;28;20104;-71
2022/01/07 09:50:45;;;;;;;31.02;13.30;;;;;;;4.16;91.80;101071.44;5059478;28;20027;-71
2022/01/07 09:53:13;;;;;;;28.55;13.52;;;;;;;4.14;92.11;101060.13;5050202;28;20033;-71
2022/01/07 09:55:39;;;;;;;31.53;13.77;;;;;;;4.16;92.10;101064.56;5051547;28;20014;-71
2022/01/07 09:58:05;;;;;;;25.35;13.77;;;;;;;4.21;91.83;101069.97;5056691;28;20092;-71
2022/01/07 10:00:39;;;;;;;25.90;13.10;;;;;;;4.24;91.92;101062.41;5065397;28;20053;-71
2022/01/07 10:03:10;;;;;;;29.13;14.13;;;;;;;4.27;91.91;101054.84;5050358;28;20032;-71
2022/01/07 10:05:42;;;;;;;29.95;14.07;;;;;;;4.27;91.65;101059.09;5058039;28;20033;-71
2022/01/07 10:08:23;;;;;;;35.25;16.95;;;;;;;4.31;91.85;101061.03;5064818;28;20070;-71
2022/01/07 10:11:08;;;;;;;30.92;13.98;;;;;;;4.35;91.56;101063.84;5070779;28;20064;-71
2022/01/07 10:13:33;;;;;;;31.30;18.42;;;;;;;4.36;90.65;101059.59;5064731;28;20029;-71
2022/01/07 10:16:12;;;;;;;30.42;17.67;;;;;;;4.38;91.00;101054.50;5055014;28;20027;-71
2022/01/07 10:18:37;;;;;;;29.98;15.32;;;;;;;4.40;90.96;101060.63;5052648;28;20021;-71
2022/01/07 10:21:08;;;;;;;39.92;21.35;;;;;;;4.42;90.98;101059.00;5063896;28;20025;-71
2022/01/07 10:23:33;;;;;;;31.88;17.50;;;;;;;4.44;90.62;101049.66;5052341;28;20021;-70
2022/01/07 10:25:59;;;;;;;35.92;17.88;;;;;;;4.46;90.99;101051.53;5055390;28;20145;-71
2022/01/07 10:28:30;;;;;;;50.33;29.30;;;;;;;4.50;90.83;101047.38;5060897;28;20184;-71
2022/01/07 10:30:56;;;;;;;27.90;13.98;;;;;;;4.53;90.54;101043.28;5064333;28;20063;-71
2022/01/07 10:33:23;;;;;;;31.67;13.73;;;;;;;4.55;90.05;101033.03;5063041;28;20135;-71
2022/01/07 10:36:12;;;;;;;34.03;18.65;;;;;;;4.57;90.16;101030.53;5054629;28;20098;-71
2022/01/07 10:38:53;;;;;;;22.45;11.63;;;;;;;4.61;90.11;101030.75;5061051;28;20083;-71
2022/01/07 10:41:20;;;;;;;25.85;13.75;;;;;;;4.64;90.24;101040.38;5065184;28;20048;-71
2022/01/07 10:43:47;;;;;;;20.65;11.45;;;;;;;4.66;89.72;101039.66;5053964;28;20025;-71
2022/01/07 10:46:23;;;;;;;30.75;15.65;;;;;;;4.69;89.61;101034.63;5054685;28;20013;-71
2022/01/07 10:48:55;;;;;;;23.25;10.68;;;;;;;4.72;89.63;101028.72;5068153;28;20098;-71
2022/01/07 10:51:24;;;;;;;25.70;10.52;;;;;;;4.75;89.41;101022.81;5063394;28;20088;-71
2022/01/07 10:53:54;;;;;;;22.23;10.23;;;;;;;4.76;89.53;101028.06;5054528;28;20037;-71
2022/01/07 10:56:51;;;;;;;26.08;11.15;;;;;;;4.83;89.77;101031.84;5051029;28;20082;-70
2022/01/07 10:59:18;;;;;;;22.75;10.13;;;;;;;4.86;89.14;101021.66;5055435;28;20025;-71
2022/01/07 11:01:45;;;;;;;19.40;10.07;;;;;;;4.84;88.74;101021.59;5051710;28;20095;-71
2022/01/07 11:04:26;;;;;;;19.80;9.80;;;;;;;4.85;88.56;101022.47;5050542;28;20032;-71
2022/01/07 11:06:53;;;;;;;20.42;9.20;;;;;;;4.86;89.13;101014.78;5054839;28;20062;-70
2022/01/07 11:09:20;;;;;;;21.30;9.95;;;;;;;4.86;88.65;101011.34;5049121;28;20177;-72
2022/01/07 11:11:51;;;;;;;18.98;8.77;;;;;;;4.84;88.46;101018.13;5054094;28;20025;-71
2022/01/07 11:14:22;;;;;;;19.52;9.00;;;;;;;4.87;88.74;101015.69;5053078;28;20218;-71
2022/01/07 11:16:48;;;;;;;22.20;10.27;;;;;;;4.90;89.09;101021.00;5055965;28;20072;-71
2022/01/07 11:19:19;;;;;;;20.40;9.85;;;;;;;4.95;89.35;101023.81;5056078;28;20288;-71
2022/01/07 11:21:47;;;;;;;25.45;9.50;;;;;;;4.96;88.97;101023.88;5066315;28;20029;-71
2022/01/07 11:24:32;;;;;;;21.95;10.75;;;;;;;4.97;88.92;101023.09;5054363;28;20028;-71
2022/01/07 11:26:59;;;;;;;21.45;11.10;;;;;;;4.99;89.25;101026.63;5075090;28;20020;-71
2022/01/07 11:29:25;;;;;;;28.20;11.13;;;;;;;4.99;89.69;101030.91;5049812;28;20032;-71